Аэропорт
Шымкент (UAII)

 UAII / CIT
ЗЦ Центральная Азия
Шымкент (UAII)
Шымкент (UAII)
 42.36420, 69.47890  / 1385 ft

 UAII 291830Z 13003MPS 080V170 CAVOK 25/11 Q1007 R10/0///70 NOSIG RMK QFE720/0961
 TAF UAII 291100Z 2912/3012 36003G08MPS 6000 SCT050 BKN100 TX36/3009Z TN17/3001Z TEMPO 2912/2918 04007G12MPS FEW050CB TEMPO 2918/3005 11006MPS TEMPO 3005/3012 06004G09MPS
показать схемы
Название сценария Тип сценария Flight Simulator 9 Flight Simulator X Prepar3D v2 Prepar3D v3 Prepar3D v4 xPlane
Recommended scenery for FS9 бесплатный
Recommended scenery for FSX бесплатный


2020 © VATRUS division (Privacy Policy)